Silver City, NM

6:30 AM MST on December 09, 2019 (GMT -0700)
Grant County

Weather History for KSVC - October, 2019

Change the Weather History Date:

Saturday, October 5, 2019

  Actual Average (WUND) Record (WUND)
Temperature  
Mean Temperature 64 °F -  
Max Temperature 78 °F - - (-1)
Min Temperature 49 °F - - (-1)
Degree Days  
Heating Degree Days 2    
Growing Degree Days 14 (Base 50)    
Moisture  
Dew Point 48 °F    
Average Humidity 62    
Maximum Humidity 97    
Minimum Humidity 24    
Precipitation  
Precipitation 0.00 in - - ()
Sea Level Pressure  
Sea Level Pressure 30.22 in    
Wind  
Wind Speed 8 mph (NW)    
Max Wind Speed 20 mph    
Max Gust Speed 22 mph    
Visibility 10 miles    
Events      
Averages and records for this station are not official NWS values.
T = Trace of Precipitation, MM = Missing Value Source: NWS Daily Summary

Daily Weather History Graph

Daily Weather History Graph

Search for Another Location

Airport or City:

Astronomy

Oct. 05, 2019 Rise Set
Actual Time 7:09 AM MDT 6:52 PM MDT
Civil Twilight 6:44 AM MDT 7:16 PM MDT
Nautical Twilight 6:16 AM MDT 7:45 PM MDT
Astronomical Twilight 5:47 AM MDT 8:13 PM MDT
Moon 2:19 PM MDT (10/5) No Moon Set
Length of Visible Light 12h 32m
Length of Day
11h 42m
Waxing Crescent, 50% of the Moon is Illuminated
Oct 5
Waxing Crescent
Oct 13
Full
Oct 21
Last Quarter
Oct 27
New
Nov 4
First Quarter

Hourly Weather History & Observations

Time (MDT) Temp. Dew Point Humidity Pressure Visibility Wind Dir Wind Speed Gust Speed Precip Events Conditions
12:15 AM 59.5 °F 58.3 °F 96% 30.23 in 10.0 mi North 4.6 mph - N/A   Overcast
12:35 AM 59.0 °F 57.6 °F 95% 30.22 in 10.0 mi North 6.9 mph - N/A   Overcast
12:55 AM 58.6 °F 57.2 °F 95% 30.22 in 10.0 mi North 5.8 mph - N/A   Overcast
1:15 AM 58.1 °F 56.7 °F 95% 30.21 in 10.0 mi North 8.1 mph - N/A   Overcast
1:35 AM 57.6 °F 56.3 °F 96% 30.21 in 10.0 mi NNW 6.9 mph - N/A   Overcast
1:55 AM 57.2 °F 55.9 °F 96% 30.22 in 10.0 mi North 6.9 mph - N/A   Overcast
2:15 AM 56.3 °F 55.2 °F 96% 30.22 in 10.0 mi North 4.6 mph - N/A   Overcast
2:35 AM 55.8 °F 54.7 °F 96% 30.21 in 10.0 mi NNW 5.8 mph - N/A   Overcast
2:55 AM 54.9 °F 53.8 °F 96% 30.21 in 10.0 mi NNW 4.6 mph - N/A   Overcast
3:15 AM 54.7 °F 53.8 °F 97% 30.21 in 10.0 mi North 5.8 mph - N/A   Overcast
3:35 AM 55.4 °F 54.0 °F 95% 30.21 in 10.0 mi North 8.1 mph - N/A   Overcast
3:55 AM 54.9 °F 52.9 °F 93% 30.21 in 10.0 mi North 9.2 mph - N/A   Overcast
4:15 AM 54.5 °F 53.1 °F 95% 30.21 in 10.0 mi North 5.8 mph - N/A   Overcast
4:35 AM 54.5 °F 53.1 °F 95% 30.21 in 10.0 mi North 6.9 mph - N/A   Overcast
4:55 AM 53.6 °F 51.8 °F 94% 30.22 in 10.0 mi North 4.6 mph - N/A   Overcast
5:15 AM 53.1 °F 50.5 °F 91% 30.22 in 10.0 mi North 3.5 mph - N/A   Mostly Cloudy
5:35 AM 54.0 °F 52.2 °F 94% 30.22 in 10.0 mi NNW 10.4 mph - N/A   Mostly Cloudy
5:55 AM 53.4 °F 50.9 °F 91% 30.23 in 10.0 mi NNW 9.2 mph - N/A   Mostly Cloudy
6:15 AM 54.0 °F 50.0 °F 86% 30.24 in 10.0 mi NNW 9.2 mph - N/A   Mostly Cloudy
6:35 AM 53.6 °F 48.2 °F 82% 30.24 in 10.0 mi NNW 9.2 mph - N/A   Mostly Cloudy
6:55 AM 50.9 °F 47.8 °F 89% 30.25 in 10.0 mi North 5.8 mph - N/A   Mostly Cloudy
7:15 AM 49.6 °F 47.5 °F 92% 30.25 in 10.0 mi WNW 5.8 mph - N/A   Scattered Clouds
7:35 AM 53.1 °F 47.7 °F 82% 30.25 in 10.0 mi WNW 6.9 mph - N/A   Clear
7:55 AM 54.7 °F 48.4 °F 79% 30.25 in 10.0 mi NW 6.9 mph - N/A   Clear
8:15 AM 56.7 °F 49.6 °F 77% 30.27 in 10.0 mi NW 6.9 mph - N/A   Clear
8:35 AM 59.4 °F 50.2 °F 72% 30.27 in 10.0 mi NW 12.7 mph - N/A   Scattered Clouds
8:55 AM 61.7 °F 50.0 °F 65% 30.27 in 10.0 mi NW 12.7 mph - N/A   Scattered Clouds
9:15 AM 63.7 °F 49.8 °F 61% 30.28 in 10.0 mi NW 12.7 mph - N/A   Scattered Clouds
9:35 AM 65.7 °F 48.0 °F 53% 30.28 in 10.0 mi NW 11.5 mph - N/A   Scattered Clouds
9:55 AM 67.5 °F 46.9 °F 48% 30.28 in 10.0 mi NW 11.5 mph - N/A   Scattered Clouds
10:15 AM 69.1 °F 47.3 °F 46% 30.28 in 10.0 mi NW 9.2 mph - N/A   Mostly Cloudy
10:35 AM 70.2 °F 46.6 °F 43% 30.28 in 10.0 mi NW 6.9 mph - N/A   Mostly Cloudy
10:55 AM 72.1 °F 46.9 °F 41% 30.29 in 10.0 mi WNW 13.8 mph - N/A   Mostly Cloudy
11:15 AM 72.7 °F 46.4 °F 39% 30.28 in 10.0 mi West 19.6 mph - N/A   Scattered Clouds
11:35 AM 72.5 °F 46.4 °F 39% 30.28 in 10.0 mi WNW 18.4 mph - N/A   Clear
11:55 AM 72.9 °F 46.6 °F 39% 30.28 in 10.0 mi WNW 12.7 mph - N/A   Clear
12:15 PM 73.9 °F 47.3 °F 39% 30.27 in 10.0 mi WNW 16.1 mph 20.7 mph N/A   Clear
12:35 PM 74.5 °F 47.1 °F 38% 30.26 in 10.0 mi WNW 13.8 mph 18.4 mph N/A   Clear
12:55 PM 75.2 °F 45.9 °F 35% 30.26 in 10.0 mi WNW 13.8 mph 20.7 mph N/A   Clear
1:15 PM 76.1 °F 46.6 °F 35% 30.24 in 10.0 mi NNW 10.4 mph - N/A   Clear
1:35 PM 76.3 °F 46.0 °F 34% 30.24 in 10.0 mi WNW 11.5 mph 18.4 mph N/A   Clear
1:55 PM 76.5 °F 45.5 °F 33% 30.23 in 10.0 mi WNW 11.5 mph - N/A   Clear
2:15 PM 77.4 °F 45.0 °F 32% 30.21 in 10.0 mi West 13.8 mph 21.9 mph N/A   Clear
2:35 PM 77.7 °F 44.6 °F 31% 30.20 in 10.0 mi West 11.5 mph 20.7 mph N/A   Clear
2:55 PM 78.3 °F 43.7 °F 29% 30.20 in 10.0 mi WNW 8.1 mph 18.4 mph N/A   Clear
3:15 PM 78.3 °F 41.5 °F 27% 30.19 in 10.0 mi West 12.7 mph 20.7 mph N/A   Clear
3:35 PM 78.1 °F 40.5 °F 26% 30.19 in 10.0 mi West 11.5 mph 15.0 mph N/A   Clear
3:55 PM 78.4 °F 40.3 °F 26% 30.18 in 10.0 mi West 15.0 mph 19.6 mph N/A   Clear
4:15 PM 78.1 °F 39.2 °F 25% 30.18 in 10.0 mi West 13.8 mph 21.9 mph N/A   Clear
4:35 PM 78.1 °F 38.5 °F 24% 30.18 in 10.0 mi West 12.7 mph - N/A   Clear
4:55 PM 77.7 °F 40.1 °F 26% 30.17 in 10.0 mi West 11.5 mph 16.1 mph N/A   Clear
5:15 PM 77.4 °F 40.1 °F 26% 30.17 in 10.0 mi West 15.0 mph - N/A   Clear
5:35 PM 77.0 °F 40.6 °F 27% 30.17 in 10.0 mi WSW 10.4 mph - N/A   Clear
5:55 PM 76.1 °F 40.3 °F 28% 30.17 in 10.0 mi West 10.4 mph - N/A   Clear
6:15 PM 74.8 °F 41.4 °F 30% 30.17 in 10.0 mi West 9.2 mph - N/A   Clear
6:35 PM 73.0 °F 40.8 °F 31% 30.17 in 10.0 mi West 6.9 mph - N/A   Clear
6:55 PM 70.7 °F 42.8 °F 36% 30.17 in 10.0 mi West 8.1 mph - N/A   Clear
7:15 PM 68.5 °F 43.2 °F 40% 30.17 in 10.0 mi West 5.8 mph - N/A   Clear
7:35 PM 65.5 °F 45.9 °F 49% 30.17 in 10.0 mi West 6.9 mph - N/A   Clear
7:55 PM 63.3 °F 46.9 °F 55% 30.18 in 10.0 mi West 4.6 mph - N/A   Clear
8:15 PM 58.3 °F 49.5 °F 72% 30.18 in 10.0 mi NW 3.5 mph - N/A   Clear
8:35 PM 56.5 °F 49.3 °F 77% 30.18 in 10.0 mi NW 4.6 mph - N/A   Clear
8:55 PM 55.8 °F 48.9 °F 78% 30.19 in 10.0 mi NNW 8.1 mph - N/A   Clear
9:15 PM 57.2 °F 48.2 °F 72% 30.19 in 10.0 mi NNW 10.4 mph - N/A   Clear
9:35 PM 58.5 °F 47.3 °F 66% 30.20 in 10.0 mi NNW 10.4 mph - N/A   Clear
9:55 PM 57.0 °F 47.5 °F 70% 30.20 in 10.0 mi NNW 8.1 mph - N/A   Clear
10:15 PM 56.5 °F 47.1 °F 71% 30.20 in 10.0 mi NNW 8.1 mph - N/A   Clear
10:35 PM 55.4 °F 46.4 °F 72% 30.20 in 10.0 mi NNW 10.4 mph - N/A   Clear
10:55 PM 54.3 °F 46.0 °F 74% 30.19 in 10.0 mi NNW 10.4 mph - N/A   Clear
11:15 PM 53.6 °F 46.0 °F 76% 30.20 in 10.0 mi North 9.2 mph - N/A   Scattered Clouds
11:35 PM 54.5 °F 45.5 °F 72% 30.20 in 10.0 mi North 10.4 mph - N/A   Scattered Clouds
11:55 PM 52.5 °F 45.0 °F 75% 30.20 in 10.0 mi NNW 9.2 mph - N/A   Scattered Clouds